Terminal Aerodrome Forecast
Issued by NWS Newport/Morehead City, NC

Home | Current Version | Previous Version | Graphics & Text | Print | Product List | Glossary On
Versions: 1 2 3 4 5 6 7 8 9 10 11 12 13 14 15 16 17 18
000
FTUS42 KMHX 161132
TAFEWN
TAF
KEWN 161132Z 1612/1712 05007KT P6SM -DZ SCT035 OVC090
     FM161500 10013G20KT P6SM SCT030 OVC090
     FM162300 08006KT P6SM SCT020 OVC050
     FM170800 03003KT P6SM OVC025=

USA.gov is the U.S. government's official web portal to all federal, state and local government web resources and services.